Time;durP1;ratioP1;P1;durP2;ratioP2;P2;SDS_P1;SDS_P2;PMS_P1;PMS_P2;Temp;Humidity;BMP_temperature;BMP_pressure;BME280_temperature;BME280_humidity;BME280_pressure;Samples;Min_cycle;Max_cycle;Signal;HPM_P1;HPM_P2
2021/09/21 00:00:32;;;;;;;6.70;2.40;;;8.80;99.90;;;;;;4139549;28;20030;-69
2021/09/21 00:02:33;;;;;;;2.97;2.47;;;8.70;99.90;;;;;;4140815;28;20100;-66
2021/09/21 00:04:35;;;;;;;5.00;2.73;;;8.70;99.90;;;;;;4139631;28;20034;-66
2021/09/21 00:06:36;;;;;;;3.90;2.57;;;8.70;99.90;;;;;;4140338;28;20037;-66
2021/09/21 00:08:37;;;;;;;3.50;2.70;;;8.60;99.90;;;;;;4141342;28;20029;-70
2021/09/21 00:10:38;;;;;;;3.83;2.80;;;8.60;99.90;;;;;;4143053;28;20375;-66
2021/09/21 00:12:40;;;;;;;4.07;2.60;;;8.50;99.90;;;;;;4142991;28;20103;-66
2021/09/21 00:14:41;;;;;;;4.10;2.47;;;8.50;99.90;;;;;;4142865;28;20029;-65
2021/09/21 00:16:42;;;;;;;3.63;2.83;;;8.40;99.90;;;;;;4143478;28;20042;-66
2021/09/21 00:18:45;;;;;;;4.47;2.60;;;8.40;99.90;;;;;;4141997;28;20045;-65
2021/09/21 00:20:46;;;;;;;3.87;2.30;;;8.30;99.90;;;;;;4143852;28;20030;-67
2021/09/21 00:22:48;;;;;;;3.43;2.67;;;8.30;99.90;;;;;;4142347;28;20484;-66
2021/09/21 00:24:49;;;;;;;4.10;2.83;;;8.20;99.90;;;;;;4143479;28;20038;-68
2021/09/21 00:26:50;;;;;;;5.20;2.80;;;8.20;99.90;;;;;;4142188;28;20041;-68
2021/09/21 00:28:51;;;;;;;4.83;3.10;;;8.20;99.90;;;;;;4143574;28;20038;-68
2021/09/21 00:30:53;;;;;;;3.70;2.80;;;8.10;99.90;;;;;;4142458;28;20084;-67
2021/09/21 00:33:04;;;;;;;5.10;2.97;;;8.10;99.90;;;;;;4143385;28;20026;-66
2021/09/21 00:35:06;;;;;;;4.43;2.73;;;8.10;99.90;;;;;;4142254;28;20052;-66
2021/09/21 00:37:09;;;;;;;5.20;3.07;;;8.00;99.90;;;;;;4143139;28;20104;-66
2021/09/21 00:39:11;;;;;;;4.17;3.10;;;8.00;99.90;;;;;;4142143;28;20585;-70
2021/09/21 00:41:13;;;;;;;5.70;3.30;;;8.00;99.90;;;;;;4143463;28;20042;-66
2021/09/21 00:43:20;;;;;;;5.17;3.27;;;7.90;99.90;;;;;;4142049;28;20041;-65
2021/09/21 00:45:24;;;;;;;4.90;3.07;;;7.90;99.90;;;;;;4142835;28;20478;-66
2021/09/21 00:47:26;;;;;;;4.37;2.77;;;7.80;99.90;;;;;;4140466;28;20080;-67
2021/09/21 00:49:27;;;;;;;3.57;2.90;;;7.80;99.90;;;;;;4142331;28;20076;-65
2021/09/21 00:51:28;;;;;;;4.70;2.83;;;7.80;99.90;;;;;;4142798;28;20033;-66
2021/09/21 00:53:30;;;;;;;4.30;3.30;;;7.70;99.90;;;;;;4142030;28;20041;-66
2021/09/21 00:55:32;;;;;;;5.83;2.93;;;7.70;99.90;;;;;;4143036;28;20033;-66
2021/09/21 00:57:36;;;;;;;5.17;2.80;;;7.70;99.90;;;;;;4142140;28;20100;-65
2021/09/21 00:59:37;;;;;;;4.43;3.13;;;7.60;99.90;;;;;;4143469;28;20061;-65
2021/09/21 01:01:38;;;;;;;5.50;3.17;;;7.60;99.90;;;;;;4141500;28;20038;-64
2021/09/21 01:03:40;;;;;;;4.37;2.83;;;7.60;99.90;;;;;;4142565;28;20030;-65
2021/09/21 01:05:41;;;;;;;6.00;3.27;;;7.50;99.90;;;;;;4140315;28;20030;-65
2021/09/21 01:07:43;;;;;;;7.80;3.17;;;7.50;99.90;;;;;;4142857;28;20034;-65
2021/09/21 01:09:44;;;;;;;6.63;3.63;;;7.60;99.90;;;;;;4141371;28;20057;-67
2021/09/21 01:11:54;;;;;;;5.17;3.07;;;7.50;99.90;;;;;;4143374;28;20034;-66
2021/09/21 01:13:55;;;;;;;5.67;3.07;;;7.50;99.90;;;;;;4141799;28;20120;-69
2021/09/21 01:15:56;;;;;;;5.33;2.73;;;7.40;99.90;;;;;;4143120;28;20030;-68
2021/09/21 01:17:58;;;;;;;4.70;3.20;;;7.30;99.90;;;;;;4141939;28;20029;-67
2021/09/21 01:20:00;;;;;;;6.00;3.53;;;7.30;99.90;;;;;;4144358;28;20084;-65
2021/09/21 01:22:01;;;;;;;4.17;2.93;;;7.30;99.90;;;;;;4142007;28;20064;-65
2021/09/21 01:24:02;;;;;;;3.27;2.60;;;7.30;99.90;;;;;;4141943;28;20466;-68
2021/09/21 01:26:04;;;;;;;3.53;2.67;;;7.20;99.90;;;;;;4141882;28;20072;-68
2021/09/21 01:28:05;;;;;;;6.20;2.80;;;7.20;99.90;;;;;;4141730;28;20567;-66
2021/09/21 01:30:10;;;;;;;4.63;2.70;;;7.20;99.90;;;;;;4142691;28;20414;-67
2021/09/21 01:32:12;;;;;;;4.07;2.70;;;7.20;99.90;;;;;;4141470;28;20026;-67
2021/09/21 01:34:18;;;;;;;4.60;2.80;;;7.20;99.90;;;;;;4142147;28;20022;-66
2021/09/21 01:36:23;;;;;;;4.37;2.33;;;7.10;99.90;;;;;;4139611;28;20042;-67
2021/09/21 01:38:24;;;;;;;3.47;2.00;;;7.10;99.90;;;;;;4142147;28;20046;-66
2021/09/21 01:40:25;;;;;;;3.47;2.80;;;7.10;99.90;;;;;;4141245;28;20371;-66
2021/09/21 01:42:26;;;;;;;3.23;2.40;;;7.10;99.90;;;;;;4142551;28;20072;-66
2021/09/21 01:44:27;;;;;;;4.10;2.43;;;7.10;99.90;;;;;;4141372;28;20099;-66
2021/09/21 01:46:30;;;;;;;7.03;2.73;;;7.10;99.90;;;;;;4142120;28;20099;-66
2021/09/21 01:48:31;;;;;;;5.13;2.70;;;7.10;99.90;;;;;;4140882;28;20029;-66
2021/09/21 01:52:42;;;;;;;3.77;2.80;;;7.10;99.90;;;;;;4140677;28;20072;-66
2021/09/21 01:59:23;;;;;;;4.60;2.67;;;7.00;99.90;;;;;;4142598;28;20450;-66
2021/09/21 02:01:26;;;;;;;3.17;2.50;;;7.00;99.90;;;;;;4140722;28;20085;-65
2021/09/21 02:03:27;;;;;;;4.20;2.57;;;6.90;99.90;;;;;;4142251;28;20038;-66
2021/09/21 02:05:28;;;;;;;5.40;3.00;;;6.90;99.90;;;;;;4140846;28;20100;-68
2021/09/21 02:07:30;;;;;;;4.63;3.00;;;6.90;99.90;;;;;;4141588;28;20079;-66
2021/09/21 02:09:31;;;;;;;7.50;3.00;;;6.90;99.90;;;;;;4141634;28;20069;-66
2021/09/21 02:11:32;;;;;;;4.53;3.10;;;6.90;99.90;;;;;;4141010;28;20018;-67
2021/09/21 02:13:34;;;;;;;4.00;2.90;;;6.80;99.90;;;;;;4141391;28;20046;-65
2021/09/21 02:15:35;;;;;;;5.13;2.93;;;6.90;99.90;;;;;;4140547;28;20084;-65
2021/09/21 02:17:36;;;;;;;4.83;3.03;;;6.90;99.90;;;;;;4139965;28;20092;-66
2021/09/21 02:19:40;;;;;;;4.77;3.03;;;6.90;99.90;;;;;;4140562;28;20080;-66
2021/09/21 02:21:41;;;;;;;7.03;3.33;;;6.80;99.90;;;;;;4141834;28;20080;-66
2021/09/21 02:23:43;;;;;;;7.00;2.90;;;6.90;99.90;;;;;;4140607;28;20427;-66
2021/09/21 02:25:44;;;;;;;3.77;2.73;;;6.80;99.90;;;;;;4141443;28;20042;-67
2021/09/21 02:27:46;;;;;;;4.40;2.70;;;6.80;99.90;;;;;;4140090;28;20104;-66
2021/09/21 02:29:47;;;;;;;4.47;3.03;;;6.80;99.90;;;;;;4141671;28;20033;-66
2021/09/21 02:31:48;;;;;;;7.60;3.17;;;6.70;99.90;;;;;;4139526;28;20084;-66
2021/09/21 02:33:50;;;;;;;7.43;3.40;;;6.70;99.90;;;;;;4141568;28;20041;-66
2021/09/21 02:35:51;;;;;;;6.97;2.90;;;6.60;99.90;;;;;;4140249;28;20030;-66
2021/09/21 02:37:52;;;;;;;8.03;3.67;;;6.50;99.90;;;;;;4141444;28;20034;-66
2021/09/21 02:39:53;;;;;;;6.93;3.90;;;6.50;99.90;;;;;;4141079;28;20084;-65
2021/09/21 02:41:55;;;;;;;5.07;3.07;;;6.50;99.90;;;;;;4140953;28;20038;-66
2021/09/21 02:43:56;;;;;;;4.73;3.03;;;6.40;99.90;;;;;;4141070;28;20025;-66
2021/09/21 02:46:00;;;;;;;5.47;3.57;;;6.40;99.90;;;;;;4140260;28;20037;-66
2021/09/21 02:48:02;;;;;;;6.20;4.10;;;6.30;99.90;;;;;;4139430;28;20045;-68
2021/09/21 02:50:05;;;;;;;4.57;2.97;;;6.30;99.90;;;;;;4140183;28;20037;-69
2021/09/21 02:52:06;;;;;;;4.40;3.10;;;6.30;99.90;;;;;;4141280;28;20092;-66
2021/09/21 02:54:08;;;;;;;4.37;3.13;;;6.30;99.90;;;;;;4140359;28;20031;-66
2021/09/21 02:56:12;;;;;;;3.93;2.73;;;6.40;99.90;;;;;;4141417;28;20541;-70
2021/09/21 02:58:14;;;;;;;4.30;3.20;;;6.40;99.90;;;;;;4140517;28;20092;-67
2021/09/21 03:00:21;;;;;;;6.53;3.50;;;6.40;99.90;;;;;;4141314;28;20038;-65
2021/09/21 03:02:23;;;;;;;5.27;3.30;;;6.50;99.90;;;;;;4140246;28;20500;-65
2021/09/21 03:04:31;;;;;;;6.93;2.73;;;6.50;99.90;;;;;;4141523;28;20034;-67
2021/09/21 03:06:39;;;;;;;4.57;2.73;;;6.60;99.90;;;;;;4139960;28;20100;-65
2021/09/21 03:08:40;;;;;;;6.07;3.70;;;6.60;99.90;;;;;;4141392;28;20623;-66
2021/09/21 03:17:54;;;;;;;9.48;2.97;;;6.50;99.90;;;;;;4141230;28;20030;-66
2021/09/21 03:19:56;;;;;;;5.00;3.13;;;6.50;99.90;;;;;;4139833;28;20204;-68
2021/09/21 03:21:58;;;;;;;5.27;3.50;;;6.50;99.90;;;;;;4141036;28;20046;-66
2021/09/21 03:24:00;;;;;;;5.40;3.23;;;6.50;99.90;;;;;;4140029;28;20092;-65
2021/09/21 03:26:01;;;;;;;7.37;3.50;;;6.40;99.90;;;;;;4141353;28;20038;-66
2021/09/21 03:28:03;;;;;;;4.97;3.30;;;6.40;99.90;;;;;;4139521;28;20096;-66
2021/09/21 03:30:05;;;;;;;4.60;2.93;;;6.40;99.90;;;;;;4141162;28;20107;-65
2021/09/21 03:32:06;;;;;;;5.80;3.50;;;6.30;99.90;;;;;;4139716;28;20466;-67
2021/09/21 03:34:07;;;;;;;5.50;3.47;;;6.30;99.90;;;;;;4140513;28;20092;-67
2021/09/21 03:36:08;;;;;;;8.13;3.30;;;6.20;99.90;;;;;;4139898;28;20084;-67
2021/09/21 03:38:10;;;;;;;6.90;4.03;;;6.20;99.90;;;;;;4140370;28;20034;-67
2021/09/21 03:40:11;;;;;;;22.87;10.80;;;6.20;99.90;;;;;;4140020;28;20473;-65
2021/09/21 03:42:12;;;;;;;12.90;6.77;;;6.10;99.90;;;;;;4139874;28;20026;-66
2021/09/21 03:44:13;;;;;;;8.03;4.70;;;6.10;99.90;;;;;;4142850;28;20520;-66
2021/09/21 03:46:16;;;;;;;6.77;3.73;;;6.00;99.90;;;;;;4141876;28;20132;-66
2021/09/21 03:48:18;;;;;;;9.23;3.67;;;6.00;99.90;;;;;;4143084;28;20101;-67
2021/09/21 03:50:19;;;;;;;8.03;3.70;;;6.00;99.90;;;;;;4142394;28;20646;-66
2021/09/21 03:52:20;;;;;;;5.73;3.50;;;6.00;99.90;;;;;;4143508;28;20080;-67
2021/09/21 03:54:22;;;;;;;5.40;3.63;;;6.00;99.90;;;;;;4142970;28;20088;-68
2021/09/21 03:56:23;;;;;;;8.00;3.00;;;6.00;99.90;;;;;;4143930;28;20026;-66
2021/09/21 03:58:24;;;;;;;8.70;3.20;;;6.00;99.90;;;;;;4142611;28;20156;-66
2021/09/21 04:00:26;;;;;;;8.40;3.23;;;6.00;99.90;;;;;;4143882;28;20100;-67
2021/09/21 04:02:27;;;;;;;9.93;4.83;;;6.00;99.90;;;;;;4141769;28;20072;-67
2021/09/21 04:04:28;;;;;;;21.20;7.80;;;6.10;99.90;;;;;;4134776;28;20025;-64
2021/09/21 04:06:30;;;;;;;27.07;11.57;;;6.10;99.90;;;;;;4142403;28;20034;-64
2021/09/21 04:08:31;;;;;;;35.80;13.93;;;6.00;99.90;;;;;;4142519;28;20096;-64
2021/09/21 04:10:32;;;;;;;37.90;16.03;;;6.00;99.90;;;;;;4141296;28;20092;-64
2021/09/21 04:12:35;;;;;;;47.20;18.13;;;6.00;99.90;;;;;;4141202;28;20206;-64
2021/09/21 04:14:36;;;;;;;41.33;16.93;;;6.00;99.90;;;;;;4142087;28;20145;-65
2021/09/21 04:16:37;;;;;;;37.90;15.50;;;6.00;99.90;;;;;;4141225;28;20042;-68
2021/09/21 04:18:39;;;;;;;26.53;10.47;;;6.00;99.90;;;;;;4142501;28;20029;-63
2021/09/21 04:20:40;;;;;;;15.27;7.30;;;6.00;99.90;;;;;;4141186;28;20104;-62
2021/09/21 04:22:43;;;;;;;17.70;6.13;;;6.00;99.90;;;;;;4141620;28;20517;-65
2021/09/21 04:24:47;;;;;;;7.60;3.97;;;6.00;99.90;;;;;;4127830;28;20026;-64
2021/09/21 04:26:48;;;;;;;8.03;3.70;;;6.00;99.90;;;;;;4125578;28;20621;-64
2021/09/21 04:28:49;;;;;;;7.50;4.27;;;6.10;99.90;;;;;;4140695;28;20147;-64
2021/09/21 04:30:51;;;;;;;9.73;4.33;;;6.30;99.90;;;;;;4141681;28;20108;-62
2021/09/21 04:32:53;;;;;;;5.07;3.07;;;6.60;99.90;;;;;;4140084;28;20091;-62
2021/09/21 04:34:54;;;;;;;4.20;3.03;;;7.00;99.90;;;;;;4141280;28;20445;-64
2021/09/21 04:36:56;;;;;;;7.97;2.60;;;7.30;99.90;;;;;;4139158;28;20103;-64
2021/09/21 04:38:58;;;;;;;5.07;2.83;;;7.70;99.90;;;;;;4140843;28;20038;-65
2021/09/21 04:41:00;;;;;;;10.60;3.20;;;8.00;99.90;;;;;;4140651;28;20580;-65
2021/09/21 04:43:01;;;;;;;5.53;2.97;;;8.50;99.90;;;;;;4139611;28;20112;-63
2021/09/21 04:45:03;;;;;;;8.30;3.13;;;9.00;99.90;;;;;;4141921;28;20042;-66
2021/09/21 04:47:04;;;;;;;7.17;2.90;;;9.40;99.90;;;;;;4139469;28;20104;-65
2021/09/21 04:49:07;;;;;;;10.40;3.43;;;9.90;99.90;;;;;;4142596;28;20647;-63
2021/09/21 04:51:09;;;;;;;4.53;2.40;;;10.40;99.90;;;;;;4141530;28;20025;-65
2021/09/21 04:53:10;;;;;;;11.03;2.60;;;10.90;99.90;;;;;;4142450;28;20089;-66
2021/09/21 04:55:11;;;;;;;4.03;2.37;;;11.20;99.90;;;;;;4140183;28;20038;-65
2021/09/21 04:57:12;;;;;;;3.73;2.07;;;11.60;99.90;;;;;;4141236;28;20080;-68
2021/09/21 04:59:13;;;;;;;7.30;2.50;;;11.80;99.90;;;;;;4140485;28;20050;-66
2021/09/21 05:01:15;;;;;;;2.77;2.13;;;12.10;99.90;;;;;;4142559;28;20098;-65
2021/09/21 05:03:16;;;;;;;4.63;2.60;;;12.20;99.90;;;;;;4141178;28;20118;-64
2021/09/21 05:05:18;;;;;;;4.17;2.30;;;12.50;99.90;;;;;;4141071;28;20100;-64
2021/09/21 05:07:19;;;;;;;5.00;2.30;;;13.00;99.90;;;;;;4141285;28;20025;-65
2021/09/21 05:09:21;;;;;;;3.60;1.90;;;13.40;99.90;;;;;;4141947;28;20033;-65
2021/09/21 05:11:22;;;;;;;4.40;2.10;;;13.80;99.90;;;;;;4141500;28;20372;-65
2021/09/21 05:13:23;;;;;;;3.77;2.33;;;14.00;99.90;;;;;;4141860;28;20355;-67
2021/09/21 05:15:26;;;;;;;4.40;2.70;;;14.10;99.90;;;;;;4141807;28;20072;-66
2021/09/21 05:17:27;;;;;;;8.32;2.60;;;14.40;99.90;;;;;;4141113;28;20119;-67
2021/09/21 05:19:28;;;;;;;3.55;1.95;;;14.70;99.90;;;;;;4141853;28;20960;-65
2021/09/21 05:21:30;;;;;;;4.32;2.35;;;14.90;99.90;;;;;;4141071;28;20030;-65
2021/09/21 05:23:31;;;;;;;3.45;1.83;;;15.20;99.90;;;;;;4142160;28;20054;-63
2021/09/21 05:25:32;;;;;;;4.43;2.70;;;15.50;99.90;;;;;;4141096;28;20168;-66
2021/09/21 05:27:33;;;;;;;2.30;1.60;;;15.80;99.90;;;;;;4142317;28;20096;-64
2021/09/21 05:29:34;;;;;;;3.55;1.50;;;16.00;99.80;;;;;;4141103;28;20145;-63
2021/09/21 05:31:35;;;;;;;4.70;1.65;;;16.10;99.00;;;;;;4142219;28;20041;-64
2021/09/21 05:33:37;;;;;;;2.88;2.08;;;16.20;98.50;;;;;;4140507;28;20441;-64
2021/09/21 05:35:38;;;;;;;7.20;2.08;;;15.90;98.40;;;;;;4142284;28;20422;-63
2021/09/21 05:37:39;;;;;;;4.57;2.70;;;16.10;98.30;;;;;;4141010;28;20065;-64
2021/09/21 05:39:40;;;;;;;2.20;1.13;;;16.30;98.10;;;;;;4141103;28;20054;-66
2021/09/21 05:41:43;;;;;;;7.97;2.95;;;16.50;97.30;;;;;;4140895;28;20095;-63
2021/09/21 05:43:44;;;;;;;3.15;1.80;;;16.50;96.70;;;;;;4141102;28;20026;-65
2021/09/21 05:45:45;;;;;;;6.10;1.60;;;16.40;96.40;;;;;;4141496;28;20038;-65
2021/09/21 05:47:47;;;;;;;8.88;3.25;;;16.50;96.30;;;;;;4140483;28;20099;-64
2021/09/21 05:49:48;;;;;;;13.32;3.95;;;16.60;95.80;;;;;;4141002;28;20041;-66
2021/09/21 05:51:50;;;;;;;10.88;3.05;;;16.80;95.10;;;;;;4140097;28;20042;-65
2021/09/21 05:53:51;;;;;;;11.25;3.28;;;16.50;94.80;;;;;;4141647;28;20034;-64
2021/09/21 05:55:52;;;;;;;16.38;3.75;;;16.00;94.80;;;;;;4140689;28;20049;-63
2021/09/21 05:57:53;;;;;;;11.50;2.55;;;15.50;95.20;;;;;;4141675;28;20029;-65
2021/09/21 05:59:54;;;;;;;7.50;2.03;;;15.20;95.20;;;;;;4140299;28;20046;-64
2021/09/21 06:01:55;;;;;;;5.85;2.25;;;15.00;95.10;;;;;;4141494;28;20478;-62
2021/09/21 06:03:57;;;;;;;12.38;2.92;;;14.60;95.50;;;;;;4139775;28;20108;-64
2021/09/21 06:05:58;;;;;;;10.70;2.38;;;14.90;95.50;;;;;;4141601;28;20514;-69
2021/09/21 06:07:59;;;;;;;6.32;2.55;;;15.00;95.20;;;;;;4140312;28;20026;-65
2021/09/21 06:10:01;;;;;;;6.35;2.08;;;14.90;94.70;;;;;;4141418;28;20092;-64
2021/09/21 06:12:02;;;;;;;6.75;2.15;;;14.70;95.20;;;;;;4140644;28;20081;-65
2021/09/21 06:14:04;;;;;;;2.55;1.80;;;14.80;95.60;;;;;;4140787;28;20033;-64
2021/09/21 06:16:05;;;;;;;3.97;2.20;;;15.10;94.80;;;;;;4141149;28;20026;-65
2021/09/21 06:18:07;;;;;;;3.95;2.70;;;15.00;94.60;;;;;;4140308;28;20091;-64
2021/09/21 06:20:09;;;;;;;4.20;2.00;;;14.80;94.70;;;;;;4141061;28;20049;-64
2021/09/21 06:22:10;;;;;;;3.53;2.57;;;14.90;94.80;;;;;;4139534;28;20112;-64
2021/09/21 06:24:13;;;;;;;2.35;1.60;;;15.00;94.50;;;;;;4141760;28;20038;-64
2021/09/21 06:26:14;;;;;;;3.93;1.60;;;15.10;94.40;;;;;;4140158;28;20060;-63
2021/09/21 06:28:15;;;;;;;6.77;3.10;;;15.10;94.30;;;;;;4141525;28;20550;-64
2021/09/21 06:30:17;;;;;;;2.93;1.80;;;14.90;94.20;;;;;;4140292;28;20088;-64
2021/09/21 06:32:19;;;;;;;4.37;1.57;;;14.60;94.40;;;;;;4141404;28;20041;-67
2021/09/21 06:34:22;;;;;;;3.53;1.57;;;14.50;93.70;;;;;;4139224;28;20034;-69
2021/09/21 06:36:24;;;;;;;1.47;1.03;;;13.80;94.60;;;;;;4141117;28;20046;-63
2021/09/21 06:38:25;;;;;;;3.53;2.17;;;13.90;95.00;;;;;;4140381;28;20030;-66
2021/09/21 06:40:27;;;;;;;2.03;1.63;;;14.10;94.30;;;;;;4141123;28;20041;-66
2021/09/21 06:42:30;;;;;;;3.03;1.43;;;14.20;94.30;;;;;;4140080;28;20030;-65
2021/09/21 06:44:32;;;;;;;5.03;1.73;;;14.00;94.20;;;;;;4140887;28;20100;-64
2021/09/21 06:46:33;;;;;;;6.23;2.00;;;13.90;95.00;;;;;;4140282;28;20088;-63
2021/09/21 06:48:39;;;;;;;8.20;2.80;;;13.80;95.20;;;;;;4140441;28;20096;-64
2021/09/21 06:50:40;;;;;;;5.57;2.07;;;13.10;95.40;;;;;;4140952;28;20030;-64
2021/09/21 06:52:41;;;;;;;1.83;1.47;;;13.20;95.90;;;;;;4140292;28;20787;-63
2021/09/21 06:54:43;;;;;;;4.13;2.97;;;13.30;95.80;;;;;;4141093;28;20058;-64
2021/09/21 06:56:44;;;;;;;7.93;3.33;;;13.40;95.50;;;;;;4139775;28;20037;-64
2021/09/21 06:58:45;;;;;;;8.90;3.93;;;13.40;95.80;;;;;;4140994;28;20134;-63
2021/09/21 07:00:46;;;;;;;7.03;2.60;;;13.20;95.60;;;;;;4140518;28;20041;-65
2021/09/21 07:02:52;;;;;;;7.97;2.80;;;13.30;95.60;;;;;;4140667;28;20033;-64
2021/09/21 07:04:53;;;;;;;6.30;3.27;;;13.30;95.70;;;;;;4140078;28;20033;-63
2021/09/21 07:06:54;;;;;;;3.27;1.57;;;13.40;95.20;;;;;;4141097;28;21161;-64
2021/09/21 07:08:55;;;;;;;4.13;1.70;;;13.40;95.40;;;;;;4139612;28;20034;-67
2021/09/21 07:10:56;;;;;;;4.37;1.20;;;13.80;95.40;;;;;;4140702;28;20042;-63
2021/09/21 07:12:58;;;;;;;9.70;1.97;;;14.10;94.90;;;;;;4139294;28;20546;-68
2021/09/21 07:14:59;;;;;;;4.00;1.67;;;14.00;94.60;;;;;;4140487;28;20442;-65
2021/09/21 07:17:00;;;;;;;2.37;1.37;;;14.20;94.70;;;;;;4139481;28;20088;-64
2021/09/21 07:19:01;;;;;;;2.20;1.73;;;14.40;94.50;;;;;;4142051;28;20104;-66
2021/09/21 07:21:03;;;;;;;10.03;2.87;;;14.10;94.20;;;;;;4143740;28;20046;-65
2021/09/21 07:23:04;;;;;;;4.20;2.10;;;13.90;94.30;;;;;;4140992;28;20045;-66
2021/09/21 07:25:06;;;;;;;5.73;1.90;;;14.00;94.50;;;;;;4143865;28;20081;-64
2021/09/21 07:27:07;;;;;;;6.27;2.30;;;13.90;94.30;;;;;;4142695;28;20757;-65
2021/09/21 07:29:08;;;;;;;13.97;2.63;;;13.60;94.50;;;;;;4144625;28;20108;-67
2021/09/21 07:31:10;;;;;;;12.30;2.73;;;13.20;94.50;;;;;;4143262;28;20041;-66
2021/09/21 07:33:15;;;;;;;8.33;1.90;;;13.00;95.10;;;;;;4144066;28;20034;-64
2021/09/21 07:35:16;;;;;;;18.10;3.00;;;12.70;95.20;;;;;;4141972;28;20050;-64
2021/09/21 07:37:18;;;;;;;8.27;2.50;;;12.70;95.70;;;;;;4143726;28;20038;-63
2021/09/21 07:39:20;;;;;;;14.20;2.47;;;12.90;95.70;;;;;;4142629;28;20077;-65
2021/09/21 07:41:21;;;;;;;6.27;1.80;;;12.70;95.40;;;;;;4143766;28;20448;-63
2021/09/21 07:43:22;;;;;;;5.23;1.90;;;12.70;95.60;;;;;;4142647;28;20030;-64
2021/09/21 07:45:23;;;;;;;7.43;2.20;;;13.00;95.70;;;;;;4143786;28;20041;-64
2021/09/21 07:47:24;;;;;;;6.90;1.67;;;13.20;95.50;;;;;;4142443;28;20088;-64
2021/09/21 07:49:25;;;;;;;10.17;2.17;;;13.10;95.40;;;;;;4142899;28;20030;-64
2021/09/21 07:51:26;;;;;;;12.33;1.77;;;12.60;95.40;;;;;;4142800;28;20092;-65
2021/09/21 07:53:28;;;;;;;4.10;2.67;;;12.50;95.90;;;;;;4142868;28;20092;-64
2021/09/21 07:55:29;;;;;;;6.33;2.43;;;12.50;95.90;;;;;;4143273;28;20100;-64
2021/09/21 07:57:30;;;;;;;3.50;2.13;;;12.60;96.00;;;;;;4140441;28;20050;-64
2021/09/21 07:59:31;;;;;;;1.97;1.10;;;12.90;95.90;;;;;;4143944;28;20505;-63
2021/09/21 08:01:33;;;;;;;2.23;1.20;;;12.80;95.60;;;;;;4142446;28;20486;-65
2021/09/21 08:03:34;;;;;;;4.17;1.80;;;12.70;95.50;;;;;;4141871;28;20096;-64
2021/09/21 08:05:35;;;;;;;2.33;1.10;;;12.50;95.90;;;;;;4141926;28;20647;-65
2021/09/21 08:07:37;;;;;;;1.00;0.70;;;12.60;95.70;;;;;;4143601;28;20554;-64
2021/09/21 08:09:39;;;;;;;5.60;1.90;;;12.90;95.40;;;;;;4142023;28;20042;-65
2021/09/21 08:11:40;;;;;;;1.30;1.20;;;12.70;95.30;;;;;;4142974;28;20034;-65
2021/09/21 08:13:41;;;;;;;3.63;1.40;;;13.00;95.70;;;;;;4141693;28;20042;-64
2021/09/21 08:15:43;;;;;;;3.53;2.23;;;13.10;95.70;;;;;;4143100;28;20033;-65
2021/09/21 08:17:44;;;;;;;1.97;1.33;;;13.20;95.50;;;;;;4141956;28;20437;-65
2021/09/21 08:19:46;;;;;;;2.23;1.40;;;13.40;95.30;;;;;;4142896;28;20041;-64
2021/09/21 08:21:47;;;;;;;3.23;1.77;;;13.10;94.30;;;;;;4141000;28;20042;-63
2021/09/21 08:23:48;;;;;;;5.40;1.40;;;12.80;95.20;;;;;;4141602;28;20104;-65
2021/09/21 08:25:49;;;;;;;1.43;0.83;;;12.80;95.30;;;;;;4142940;28;20560;-67
2021/09/21 08:27:50;;;;;;;7.97;1.90;;;13.00;95.30;;;;;;4141870;28;20033;-67
2021/09/21 08:29:51;;;;;;;4.77;1.73;;;13.20;95.10;;;;;;4143439;28;20077;-64
2021/09/21 08:31:53;;;;;;;3.13;1.30;;;12.80;95.00;;;;;;4141889;28;20084;-64
2021/09/21 08:33:54;;;;;;;1.70;1.00;;;12.90;95.50;;;;;;4142657;28;20046;-66
2021/09/21 08:35:55;;;;;;;0.93;0.60;;;13.00;95.50;;;;;;4141353;28;20026;-63
2021/09/21 08:37:57;;;;;;;2.77;1.10;;;13.30;95.40;;;;;;4142477;28;20026;-63
2021/09/21 08:39:58;;;;;;;2.47;1.40;;;13.50;94.80;;;;;;4141124;28;20096;-66
2021/09/21 08:41:59;;;;;;;0.93;0.60;;;13.40;94.60;;;;;;4142877;28;20088;-65
2021/09/21 08:44:03;;;;;;;3.87;0.90;;;13.50;94.50;;;;;;4141262;28;20096;-63
2021/09/21 08:46:04;;;;;;;3.37;2.13;;;13.60;94.50;;;;;;4142921;28;20038;-65
2021/09/21 08:48:06;;;;;;;6.10;2.03;;;13.50;93.00;;;;;;4141503;28;20053;-63
2021/09/21 08:50:09;;;;;;;2.97;2.20;;;13.00;93.70;;;;;;4142366;28;20041;-66
2021/09/21 08:52:10;;;;;;;2.23;1.60;;;13.10;94.10;;;;;;4141536;28;20046;-65
2021/09/21 08:54:12;;;;;;;3.13;1.10;;;13.10;94.20;;;;;;4141510;28;20038;-62
2021/09/21 08:56:14;;;;;;;12.07;3.77;;;12.80;94.20;;;;;;4140696;28;20042;-64
2021/09/21 08:58:15;;;;;;;2.73;2.30;;;12.60;94.80;;;;;;4141896;28;20472;-63
2021/09/21 09:00:25;;;;;;;5.27;2.30;;;12.70;94.70;;;;;;4142993;28;20046;-64
2021/09/21 09:02:27;;;;;;;4.00;2.10;;;12.90;94.70;;;;;;4141351;28;20034;-63
2021/09/21 09:04:30;;;;;;;9.40;2.30;;;13.10;94.60;;;;;;4142607;28;20376;-64
2021/09/21 09:06:47;;;;;;;4.37;1.60;;;13.20;94.40;;;;;;4140907;28;20129;-64
2021/09/21 09:08:49;;;;;;;6.00;3.00;;;13.40;94.00;;;;;;4142200;28;20492;-64
2021/09/21 09:10:50;;;;;;;1.87;1.30;;;13.40;94.40;;;;;;4141067;28;20037;-64
2021/09/21 09:12:51;;;;;;;9.00;2.30;;;13.60;94.10;;;;;;4142287;28;20152;-65
2021/09/21 09:14:53;;;;;;;1.13;0.87;;;13.50;94.30;;;;;;4140983;28;20088;-65
2021/09/21 09:16:59;;;;;;;5.37;1.50;;;13.50;94.10;;;;;;4142260;28;20041;-63
2021/09/21 09:19:06;;;;;;;4.77;1.73;;;13.70;93.90;;;;;;4140267;28;20548;-64
2021/09/21 09:21:08;;;;;;;6.17;2.57;;;13.90;93.90;;;;;;4142134;28;20449;-65
2021/09/21 09:23:10;;;;;;;5.30;2.30;;;13.40;92.90;;;;;;4140423;28;20050;-65
2021/09/21 09:25:11;;;;;;;3.17;2.43;;;13.40;93.80;;;;;;4141411;28;20497;-65
2021/09/21 09:27:13;;;;;;;3.90;2.37;;;13.40;94.10;;;;;;4140059;28;20548;-63
2021/09/21 09:29:15;;;;;;;1.60;1.50;;;13.40;94.40;;;;;;4141730;28;20096;-64
2021/09/21 09:31:31;;;;;;;2.47;1.13;;;13.30;94.60;;;;;;4141447;28;20026;-64
2021/09/21 09:33:36;;;;;;;2.37;1.00;;;13.30;94.30;;;;;;4141756;28;20038;-63
2021/09/21 09:35:39;;;;;;;1.33;0.70;;;13.50;94.40;;;;;;4140294;28;20120;-63
2021/09/21 09:37:41;;;;;;;3.40;1.37;;;13.60;93.80;;;;;;4141041;28;20414;-63
2021/09/21 09:39:42;;;;;;;1.60;1.10;;;13.60;93.50;;;;;;4140441;28;20048;-63
2021/09/21 09:41:45;;;;;;;1.03;0.77;;;13.60;93.00;;;;;;4140537;28;20080;-64
2021/09/21 09:43:46;;;;;;;3.37;1.40;;;13.60;93.10;;;;;;4141076;28;20791;-64
2021/09/21 09:45:50;;;;;;;3.67;1.63;;;13.60;93.10;;;;;;4140597;28;20034;-64
2021/09/21 09:47:51;;;;;;;1.43;0.80;;;13.60;93.40;;;;;;4141985;28;20145;-63
2021/09/21 09:49:52;;;;;;;2.53;1.20;;;13.70;93.50;;;;;;4140808;28;20030;-66
2021/09/21 09:51:55;;;;;;;1.57;0.90;;;13.70;93.20;;;;;;4141495;28;20661;-65
2021/09/21 09:53:56;;;;;;;1.10;1.00;;;13.70;93.10;;;;;;4140770;28;20061;-64
2021/09/21 09:55:58;;;;;;;6.10;2.57;;;13.80;93.30;;;;;;4141623;28;20092;-65
2021/09/21 09:58:03;;;;;;;4.50;1.97;;;13.80;93.60;;;;;;4140171;28;20103;-63
2021/09/21 10:00:04;;;;;;;1.73;1.50;;;13.90;92.90;;;;;;4140293;28;20077;-65
2021/09/21 10:02:06;;;;;;;6.27;3.17;;;13.90;92.50;;;;;;4140954;28;20041;-64
2021/09/21 10:04:07;;;;;;;1.73;1.50;;;13.80;91.90;;;;;;4141092;28;20037;-66
2021/09/21 10:06:08;;;;;;;5.17;2.70;;;13.40;92.10;;;;;;4138740;28;20072;-63
2021/09/21 10:08:10;;;;;;;5.93;2.60;;;13.30;92.90;;;;;;4141226;28;20127;-65
2021/09/21 10:10:12;;;;;;;7.60;2.57;;;13.40;93.20;;;;;;4140017;28;20034;-64
2021/09/21 10:12:14;;;;;;;4.70;1.40;;;13.50;93.30;;;;;;4140757;28;20034;-64
2021/09/21 10:14:18;;;;;;;1.77;0.80;;;13.60;93.30;;;;;;4140562;28;20133;-63
2021/09/21 10:16:20;;;;;;;3.83;2.83;;;13.80;92.80;;;;;;4140294;28;20100;-63
2021/09/21 10:18:23;;;;;;;11.90;2.73;;;13.70;92.60;;;;;;4140866;28;20532;-64
2021/09/21 10:20:34;;;;;;;1.83;1.53;;;13.70;92.60;;;;;;4139987;28;20072;-64
2021/09/21 10:22:36;;;;;;;5.40;1.80;;;13.80;91.80;;;;;;4141071;28;20435;-65
2021/09/21 10:24:48;;;;;;;4.27;1.37;;;13.70;92.50;;;;;;4140035;28;20417;-66
2021/09/21 10:26:50;;;;;;;2.83;1.37;;;13.50;91.90;;;;;;4141019;28;20104;-64
2021/09/21 10:28:51;;;;;;;2.00;1.37;;;13.30;92.70;;;;;;4140088;28;20030;-63
2021/09/21 10:30:55;;;;;;;2.83;1.20;;;13.30;92.80;;;;;;4141824;28;20030;-65
2021/09/21 10:32:58;;;;;;;0.97;0.70;;;13.40;92.50;;;;;;4140120;28;20033;-63
2021/09/21 10:35:09;;;;;;;4.00;2.40;;;13.60;92.40;;;;;;4141214;28;20701;-63
2021/09/21 10:37:12;;;;;;;6.17;2.03;;;13.60;92.00;;;;;;4139942;28;20085;-67
2021/09/21 10:39:14;;;;;;;3.20;1.90;;;13.40;92.50;;;;;;4141046;28;20072;-67
2021/09/21 10:41:15;;;;;;;2.47;1.53;;;13.40;92.60;;;;;;4139633;28;20104;-67
2021/09/21 10:43:44;;;;;;;3.00;1.40;;;13.20;91.80;;;;;;4140436;28;20760;-64
2021/09/21 10:45:46;;;;;;;2.00;1.30;;;13.20;91.70;;;;;;4135175;28;20045;-64
2021/09/21 10:47:48;;;;;;;17.70;3.53;;;13.10;92.20;;;;;;4141009;28;20092;-64
2021/09/21 10:49:49;;;;;;;10.30;2.63;;;13.00;92.80;;;;;;4139900;28;20612;-63
2021/09/21 10:51:51;;;;;;;1.20;1.00;;;13.20;93.10;;;;;;4140765;28;20034;-65